Time;durP1;ratioP1;P1;durP2;ratioP2;P2;SDS_P1;SDS_P2;PMS_P1;PMS_P2;Temp;Humidity;BMP_temperature;BMP_pressure;BME280_temperature;BME280_humidity;BME280_pressure;Samples;Min_cycle;Max_cycle;Signal;HPM_P1;HPM_P2
2022/12/07 00:00:11;;;;;;;2.17;1.50;;;19.20;48.60;;;;;;5051497;28;20044;-44
2022/12/07 00:02:37;;;;;;;1.50;1.38;;;19.10;48.60;;;;;;5051376;28;20051;-44
2022/12/07 00:05:06;;;;;;;3.60;1.60;;;19.10;48.60;;;;;;5051259;28;20412;-43
2022/12/07 00:07:33;;;;;;;2.15;1.50;;;17.90;48.00;;;;;;5051586;28;20045;-43
2022/12/07 00:09:59;;;;;;;2.88;1.50;;;19.00;48.70;;;;;;5051439;28;20048;-43
2022/12/07 00:12:26;;;;;;;2.75;1.50;;;19.00;48.70;;;;;;5051351;28;20049;-44
2022/12/07 00:14:53;;;;;;;2.20;1.42;;;19.00;48.80;;;;;;5051373;28;20049;-43
2022/12/07 00:17:19;;;;;;;2.35;1.55;;;19.00;48.80;;;;;;5051131;28;20049;-43
2022/12/07 00:19:46;;;;;;;2.22;1.50;;;19.00;48.90;;;;;;5052203;28;20060;-44
2022/12/07 00:22:14;;;;;;;2.75;1.50;;;19.00;48.90;;;;;;5055525;28;20410;-43
2022/12/07 00:24:41;;;;;;;2.58;1.40;;;18.90;48.90;;;;;;5055450;28;20051;-44
2022/12/07 00:27:07;;;;;;;2.95;1.65;;;18.90;48.90;;;;;;5053910;28;20413;-44
2022/12/07 00:29:34;;;;;;;2.03;1.50;;;18.90;48.90;;;;;;5055364;28;20045;-44
2022/12/07 00:32:01;;;;;;;2.47;1.52;;;18.90;48.90;;;;;;5055102;28;20048;-43
2022/12/07 00:34:27;;;;;;;3.30;1.42;;;18.80;48.90;;;;;;5055276;28;20155;-43
2022/12/07 00:36:54;;;;;;;2.55;1.52;;;18.80;48.90;;;;;;5055479;28;20059;-43
2022/12/07 00:39:22;;;;;;;3.42;1.30;;;18.80;48.90;;;;;;5054939;28;20059;-44
2022/12/07 00:41:49;;;;;;;1.55;1.30;;;18.80;49.00;;;;;;5054935;28;20641;-43
2022/12/07 00:44:15;;;;;;;3.00;1.60;;;18.70;49.30;;;;;;5054657;28;20048;-43
2022/12/07 00:46:42;;;;;;;2.25;1.50;;;18.70;49.10;;;;;;5054635;28;20049;-43
2022/12/07 00:49:09;;;;;;;1.90;1.30;;;18.70;49.10;;;;;;5054531;28;20782;-43
2022/12/07 00:51:35;;;;;;;1.65;1.20;;;18.60;49.10;;;;;;5055028;28;20055;-43
2022/12/07 00:54:02;;;;;;;2.00;1.45;;;18.60;49.10;;;;;;5054573;28;20045;-43
2022/12/07 00:56:30;;;;;;;2.42;1.10;;;18.60;49.20;;;;;;5054861;28;20051;-43
2022/12/07 00:58:58;;;;;;;2.90;1.50;;;18.60;49.20;;;;;;5054406;28;20463;-43
2022/12/07 01:01:25;;;;;;;2.15;1.30;;;18.60;49.20;;;;;;5054973;28;20047;-43
2022/12/07 01:03:52;;;;;;;1.80;1.30;;;18.50;49.20;;;;;;5054404;28;20045;-43
2022/12/07 01:06:20;;;;;;;1.92;1.25;;;18.50;49.30;;;;;;5054681;28;20390;-43
2022/12/07 01:08:47;;;;;;;2.40;1.25;;;18.50;49.30;;;;;;5054731;28;20140;-43
2022/12/07 01:11:15;;;;;;;2.10;1.30;;;18.50;49.30;;;;;;5053068;28;20057;-43
2022/12/07 01:13:43;;;;;;;2.75;1.17;;;18.50;49.40;;;;;;5054054;28;20041;-43
2022/12/07 01:16:11;;;;;;;2.50;1.20;;;18.40;49.30;;;;;;5054678;28;20052;-43
2022/12/07 01:18:38;;;;;;;2.17;1.40;;;18.40;49.40;;;;;;5054520;28;20049;-43
2022/12/07 01:21:06;;;;;;;2.38;1.38;;;18.40;49.40;;;;;;5054177;28;20474;-44
2022/12/07 01:23:33;;;;;;;6.18;1.70;;;18.40;49.40;;;;;;5054057;28;20051;-43
2022/12/07 01:26:01;;;;;;;1.80;1.20;;;18.40;49.40;;;;;;5054185;28;20049;-44
2022/12/07 01:28:28;;;;;;;1.58;1.08;;;18.30;49.40;;;;;;5053990;28;20045;-43
2022/12/07 01:31:00;;;;;;;3.17;1.10;;;18.30;49.40;;;;;;5054289;28;20045;-43
2022/12/07 01:33:28;;;;;;;2.17;1.27;;;18.30;49.40;;;;;;5053927;28;20055;-43
2022/12/07 01:35:54;;;;;;;2.00;1.15;;;18.30;49.50;;;;;;5054165;28;20056;-42
2022/12/07 01:38:21;;;;;;;2.95;1.20;;;18.20;49.40;;;;;;5054179;28;20061;-43
2022/12/07 01:40:55;;;;;;;2.30;1.10;;;18.20;49.50;;;;;;5053765;28;20045;-43
2022/12/07 01:43:21;;;;;;;2.30;1.20;;;18.20;49.50;;;;;;5053820;28;20407;-43
2022/12/07 01:45:48;;;;;;;2.25;1.23;;;18.20;49.60;;;;;;5053929;28;20049;-43
2022/12/07 01:48:17;;;;;;;3.10;1.40;;;18.20;49.60;;;;;;5054122;28;20055;-43
2022/12/07 01:50:44;;;;;;;1.48;0.90;;;18.20;49.60;;;;;;5053722;28;20045;-43
2022/12/07 01:53:11;;;;;;;2.35;1.08;;;18.20;49.70;;;;;;5053564;28;20041;-43
2022/12/07 01:55:39;;;;;;;1.75;1.15;;;18.10;49.60;;;;;;5053380;28;20041;-43
2022/12/07 01:58:06;;;;;;;1.10;1.00;;;18.10;49.70;;;;;;5053731;28;20049;-44
2022/12/07 02:00:32;;;;;;;2.05;1.00;;;18.10;49.70;;;;;;5053652;28;20505;-44
2022/12/07 02:03:02;;;;;;;2.03;0.98;;;18.10;49.70;;;;;;5053660;28;20060;-43
2022/12/07 02:05:30;;;;;;;1.95;1.00;;;18.00;49.70;;;;;;5053444;28;20416;-43
2022/12/07 02:07:57;;;;;;;2.20;0.98;;;18.00;49.70;;;;;;5053517;28;20053;-44
2022/12/07 02:10:25;;;;;;;1.80;0.93;;;18.00;49.80;;;;;;5053422;28;20041;-43
2022/12/07 02:12:53;;;;;;;2.50;1.02;;;18.00;49.80;;;;;;5052129;28;20052;-42
2022/12/07 02:15:20;;;;;;;3.33;1.55;;;18.00;49.90;;;;;;5053078;28;20048;-43
2022/12/07 02:17:50;;;;;;;3.20;1.30;;;18.00;49.90;;;;;;5053271;28;20052;-43
2022/12/07 02:20:24;;;;;;;1.35;0.85;;;17.90;49.90;;;;;;5053201;28;20132;-43
2022/12/07 02:23:28;;;;;;;1.88;1.05;;;17.90;49.90;;;;;;5052681;28;20053;-43
2022/12/07 02:26:03;;;;;;;1.92;1.00;;;17.90;49.90;;;;;;5053074;28;20051;-43
2022/12/07 02:28:31;;;;;;;1.92;1.00;;;17.80;49.90;;;;;;5053134;28;20710;-43
2022/12/07 02:31:02;;;;;;;2.08;1.00;;;17.80;49.90;;;;;;5053130;28;20071;-43
2022/12/07 02:33:30;;;;;;;2.30;1.00;;;17.80;49.90;;;;;;5052601;28;20049;-43
2022/12/07 02:35:59;;;;;;;1.52;0.90;;;17.80;49.90;;;;;;5053177;28;20059;-43
2022/12/07 02:38:27;;;;;;;1.90;1.10;;;17.80;50.00;;;;;;5052750;28;20044;-43
2022/12/07 02:40:55;;;;;;;2.00;1.00;;;17.80;50.00;;;;;;5052437;28;20059;-43
2022/12/07 02:43:24;;;;;;;1.83;1.00;;;17.80;50.00;;;;;;5052061;28;20051;-43
2022/12/07 02:45:55;;;;;;;1.92;1.00;;;17.80;50.10;;;;;;5052960;28;20084;-43
2022/12/07 02:48:23;;;;;;;2.83;0.98;;;17.70;50.00;;;;;;5052769;28;20051;-43
2022/12/07 02:50:50;;;;;;;2.25;1.05;;;17.70;50.10;;;;;;5052414;28;20045;-43
2022/12/07 02:53:30;;;;;;;2.03;0.93;;;17.70;50.10;;;;;;5048595;28;20044;-44
2022/12/07 02:55:57;;;;;;;1.35;0.80;;;17.70;50.10;;;;;;5052455;28;20456;-43
2022/12/07 02:58:28;;;;;;;1.10;1.00;;;17.60;50.10;;;;;;5052589;28;20601;-44
2022/12/07 03:00:59;;;;;;;3.00;1.20;;;17.60;50.20;;;;;;5052574;28;20044;-43
2022/12/07 03:03:27;;;;;;;2.08;0.90;;;17.60;50.20;;;;;;5052603;28;20048;-43
2022/12/07 03:06:00;;;;;;;1.98;0.90;;;17.60;50.20;;;;;;5052245;28;20048;-43
2022/12/07 03:08:31;;;;;;;2.85;1.13;;;17.60;50.20;;;;;;5052506;28;20053;-43
2022/12/07 03:11:03;;;;;;;1.40;0.90;;;17.60;50.20;;;;;;5052397;28;20045;-43
2022/12/07 03:13:31;;;;;;;1.75;0.93;;;17.60;50.30;;;;;;5052073;28;20486;-43
2022/12/07 03:16:00;;;;;;;1.80;1.05;;;17.60;50.30;;;;;;5051954;28;20110;-43
2022/12/07 03:18:31;;;;;;;2.05;1.00;;;17.50;50.20;;;;;;5052046;28;20051;-43
2022/12/07 03:20:59;;;;;;;2.00;0.82;;;17.50;50.30;;;;;;5051919;28;20041;-43
2022/12/07 03:23:26;;;;;;;1.73;0.90;;;17.50;50.30;;;;;;5051959;28;20096;-43
2022/12/07 03:25:54;;;;;;;2.13;0.90;;;17.50;50.30;;;;;;5052259;28;20049;-43
2022/12/07 03:28:22;;;;;;;1.52;0.80;;;17.50;50.40;;;;;;5051792;28;20386;-43
2022/12/07 03:30:53;;;;;;;2.88;1.10;;;17.50;50.40;;;;;;5051880;28;20128;-43
2022/12/07 03:33:21;;;;;;;1.00;0.80;;;17.40;50.30;;;;;;5051821;28;20056;-43
2022/12/07 03:35:52;;;;;;;1.40;0.98;;;17.40;50.30;;;;;;5051700;28;20059;-43
2022/12/07 03:38:20;;;;;;;1.50;0.90;;;17.40;50.30;;;;;;5051984;28;20055;-43
2022/12/07 03:40:50;;;;;;;1.55;0.90;;;17.40;50.30;;;;;;5051753;28;20048;-43
2022/12/07 03:43:17;;;;;;;1.90;0.90;;;17.40;50.40;;;;;;5052063;28;20076;-43
2022/12/07 03:45:53;;;;;;;1.75;0.90;;;17.40;50.40;;;;;;5051942;28;20052;-43
2022/12/07 03:48:23;;;;;;;1.52;0.80;;;17.30;50.40;;;;;;5051432;28;20048;-43
2022/12/07 03:50:53;;;;;;;1.73;0.80;;;17.30;51.00;;;;;;5051951;28;20423;-43
2022/12/07 03:53:21;;;;;;;1.35;0.70;;;17.30;51.10;;;;;;5051451;28;20080;-43
2022/12/07 03:55:48;;;;;;;1.40;0.85;;;17.30;50.50;;;;;;5050887;28;20051;-43
2022/12/07 03:58:16;;;;;;;2.25;0.90;;;17.30;50.50;;;;;;5051933;28;20052;-43
2022/12/07 04:00:43;;;;;;;1.75;0.75;;;17.20;50.50;;;;;;5051585;28;20041;-43
2022/12/07 04:03:09;;;;;;;1.77;0.75;;;16.90;50.40;;;;;;5051043;28;20052;-43
2022/12/07 04:05:36;;;;;;;2.13;1.00;;;17.20;50.50;;;;;;5051473;28;20049;-44
2022/12/07 04:08:05;;;;;;;1.35;0.73;;;17.20;50.60;;;;;;5051380;28;20482;-44
2022/12/07 04:10:31;;;;;;;2.00;0.93;;;17.20;50.60;;;;;;5051126;28;20428;-44
2022/12/07 04:12:58;;;;;;;1.75;0.90;;;17.20;50.60;;;;;;5051189;28;20482;-43
2022/12/07 04:15:25;;;;;;;1.45;0.88;;;17.20;50.60;;;;;;5051549;28;20059;-44
2022/12/07 04:17:51;;;;;;;1.23;0.98;;;17.10;50.60;;;;;;5051144;28;20063;-43
2022/12/07 04:20:18;;;;;;;1.48;0.75;;;17.10;50.60;;;;;;5051190;28;20041;-43
2022/12/07 04:22:45;;;;;;;2.58;0.95;;;17.10;50.60;;;;;;5051440;28;20136;-43
2022/12/07 04:25:13;;;;;;;1.33;0.90;;;17.10;50.60;;;;;;5051497;28;20049;-43
2022/12/07 04:27:40;;;;;;;1.35;0.70;;;17.10;50.70;;;;;;5051521;28;20049;-43
2022/12/07 04:30:08;;;;;;;1.92;0.90;;;17.10;50.70;;;;;;5051151;28;20045;-43
2022/12/07 04:32:34;;;;;;;1.35;0.90;;;17.00;50.60;;;;;;5050917;28;20052;-43
2022/12/07 04:35:01;;;;;;;0.80;0.75;;;17.00;50.70;;;;;;5051122;28;20045;-43
2022/12/07 04:37:28;;;;;;;1.63;0.80;;;17.00;50.70;;;;;;5051214;28;20052;-43
2022/12/07 04:39:54;;;;;;;1.88;0.82;;;17.00;50.70;;;;;;5051253;28;20052;-44
2022/12/07 04:42:22;;;;;;;1.85;1.00;;;17.00;50.70;;;;;;5051120;28;20063;-44
2022/12/07 04:44:49;;;;;;;1.58;0.93;;;17.00;50.80;;;;;;5051162;28;20045;-44
2022/12/07 04:47:16;;;;;;;2.00;0.85;;;17.00;50.80;;;;;;5050932;28;20049;-43
2022/12/07 04:49:42;;;;;;;2.03;0.77;;;16.90;50.80;;;;;;5051101;28;20049;-43
2022/12/07 04:52:09;;;;;;;1.08;0.75;;;16.90;50.90;;;;;;5050920;28;20048;-43
2022/12/07 04:54:36;;;;;;;2.22;0.95;;;16.90;50.90;;;;;;5051192;28;20079;-43
2022/12/07 04:57:02;;;;;;;1.50;0.70;;;16.90;50.90;;;;;;5051251;28;20053;-43
2022/12/07 04:59:30;;;;;;;0.85;0.68;;;16.90;50.90;;;;;;5051106;28;20503;-43
2022/12/07 05:01:57;;;;;;;1.73;0.80;;;16.90;51.00;;;;;;5050765;28;20040;-43
2022/12/07 05:04:24;;;;;;;1.45;0.90;;;16.80;51.00;;;;;;5050424;28;20051;-43
2022/12/07 05:06:50;;;;;;;1.90;0.98;;;16.80;51.00;;;;;;5053696;28;20532;-43
2022/12/07 05:09:17;;;;;;;1.88;0.95;;;16.80;51.00;;;;;;5054553;28;20052;-43
2022/12/07 05:11:44;;;;;;;1.60;1.00;;;16.80;51.10;;;;;;5054580;28;20079;-43
2022/12/07 05:14:13;;;;;;;1.20;0.80;;;16.80;51.10;;;;;;5054140;28;20045;-43
2022/12/07 05:16:41;;;;;;;1.63;0.70;;;16.80;51.10;;;;;;5054722;28;20053;-43
2022/12/07 05:19:08;;;;;;;1.83;0.85;;;16.80;51.10;;;;;;5054301;28;20088;-43
2022/12/07 05:21:35;;;;;;;1.33;0.75;;;16.80;51.20;;;;;;5054602;28;20130;-43
2022/12/07 05:24:01;;;;;;;1.88;0.80;;;16.70;51.10;;;;;;5054074;28;20060;-43
2022/12/07 05:26:28;;;;;;;2.15;0.95;;;16.70;51.10;;;;;;5054259;28;20103;-43
2022/12/07 05:28:55;;;;;;;1.75;0.60;;;16.70;51.20;;;;;;5054600;28;20437;-43
2022/12/07 05:31:22;;;;;;;1.73;0.80;;;16.70;51.10;;;;;;5054329;28;20053;-43
2022/12/07 05:33:50;;;;;;;1.17;0.70;;;16.70;51.20;;;;;;5054233;28;20048;-43
2022/12/07 05:36:17;;;;;;;1.75;0.80;;;16.70;51.20;;;;;;5054211;28;20049;-43
2022/12/07 05:38:44;;;;;;;1.17;0.70;;;16.60;51.20;;;;;;5053830;28;20416;-43
2022/12/07 05:42:11;;;;;;;2.20;0.77;;;16.60;51.20;;;;;;5054268;28;20049;-43
2022/12/07 05:43:59;;;;;;;2.55;0.82;;;16.60;51.20;;;;;;5053651;28;20053;-43
2022/12/07 05:46:25;;;;;;;3.17;0.80;;;16.60;51.30;;;;;;5054150;28;20053;-43
2022/12/07 05:48:53;;;;;;;1.25;0.70;;;16.60;51.30;;;;;;5054008;28;20059;-43
2022/12/07 05:51:20;;;;;;;1.42;0.70;;;16.60;51.30;;;;;;5052448;28;20453;-43
2022/12/07 05:53:50;;;;;;;2.65;0.90;;;16.60;51.30;;;;;;5053450;28;20531;-43
2022/12/07 05:56:17;;;;;;;0.98;0.75;;;16.60;51.30;;;;;;5053989;28;20140;-43
2022/12/07 06:01:27;;;;;;;0.88;0.88;;;16.60;51.30;;;;;;5053833;28;20128;-43
2022/12/07 06:03:55;;;;;;;1.52;1.08;;;16.60;51.40;;;;;;5052033;28;20057;-43
2022/12/07 06:06:22;;;;;;;1.17;0.85;;;16.60;51.40;;;;;;5053590;28;20136;-44
2022/12/07 06:08:49;;;;;;;2.05;1.08;;;16.60;51.40;;;;;;5053566;28;20045;-43
2022/12/07 06:14:00;;;;;;;1.40;0.80;;;16.60;51.30;;;;;;5053137;28;20049;-43
2022/12/07 06:16:27;;;;;;;1.60;0.73;;;16.60;51.30;;;;;;5050325;28;20055;-43
2022/12/07 06:18:53;;;;;;;1.55;0.80;;;16.70;51.40;;;;;;5052159;28;20059;-43
2022/12/07 06:21:21;;;;;;;1.70;0.73;;;16.70;51.40;;;;;;5053363;28;20060;-43
2022/12/07 06:23:48;;;;;;;1.83;0.90;;;16.70;51.40;;;;;;5053250;28;20049;-43
2022/12/07 06:26:15;;;;;;;1.60;0.70;;;16.80;51.40;;;;;;5053818;28;20047;-43
2022/12/07 06:28:41;;;;;;;0.52;0.50;;;16.80;51.30;;;;;;5053751;28;20056;-43
2022/12/07 06:31:08;;;;;;;1.40;0.70;;;16.80;51.30;;;;;;5052502;28;20045;-43
2022/12/07 06:33:35;;;;;;;0.77;0.60;;;16.80;51.20;;;;;;5053383;28;20047;-44
2022/12/07 06:36:01;;;;;;;1.67;1.00;;;16.80;51.20;;;;;;5052000;28;20527;-43
2022/12/07 06:38:29;;;;;;;2.15;0.90;;;16.90;51.20;;;;;;5052359;28;20053;-44
2022/12/07 06:40:56;;;;;;;1.48;0.75;;;16.90;51.20;;;;;;5052329;28;20045;-44
2022/12/07 06:43:23;;;;;;;1.23;0.77;;;16.90;51.10;;;;;;5052080;28;20059;-43
2022/12/07 06:45:50;;;;;;;0.68;0.60;;;16.90;51.10;;;;;;5052227;28;20079;-43
2022/12/07 06:48:17;;;;;;;1.15;0.70;;;16.90;51.10;;;;;;5052195;28;20406;-43
2022/12/07 06:50:45;;;;;;;1.95;0.82;;;17.00;51.20;;;;;;5052501;28;20053;-43
2022/12/07 06:53:12;;;;;;;1.35;0.60;;;17.00;51.10;;;;;;5051706;28;20477;-43
2022/12/07 06:55:40;;;;;;;1.13;0.73;;;17.00;51.00;;;;;;5052470;28;20053;-44
2022/12/07 06:58:07;;;;;;;0.90;0.60;;;17.10;51.10;;;;;;5052563;28;20508;-44
2022/12/07 07:00:34;;;;;;;0.70;0.70;;;17.10;51.00;;;;;;5052110;28;20063;-44
2022/12/07 07:03:01;;;;;;;1.27;0.60;;;17.10;51.00;;;;;;5052166;28;20123;-44
2022/12/07 07:05:28;;;;;;;1.10;0.70;;;17.10;51.00;;;;;;5051122;28;20698;-44
2022/12/07 07:07:54;;;;;;;2.15;0.70;;;17.10;51.00;;;;;;5052710;28;20128;-43
2022/12/07 07:10:21;;;;;;;1.35;0.70;;;17.20;51.00;;;;;;5052432;28;20060;-43
2022/12/07 07:12:49;;;;;;;1.15;0.70;;;17.20;51.00;;;;;;5052245;28;20394;-43
2022/12/07 07:15:17;;;;;;;1.27;0.80;;;17.20;51.00;;;;;;5052081;28;20037;-43
2022/12/07 07:17:43;;;;;;;1.27;0.80;;;17.30;51.10;;;;;;5050742;28;20092;-43
2022/12/07 07:20:11;;;;;;;1.35;0.68;;;17.30;51.00;;;;;;5052939;28;20045;-43
2022/12/07 07:22:38;;;;;;;1.80;1.00;;;17.30;51.00;;;;;;5052164;28;20059;-43
2022/12/07 07:25:05;;;;;;;0.70;0.70;;;17.40;51.10;;;;;;5053388;28;20066;-44
2022/12/07 07:27:32;;;;;;;1.55;0.73;;;17.40;51.10;;;;;;5051739;28;20045;-43
2022/12/07 07:30:00;;;;;;;0.80;0.60;;;17.50;51.20;;;;;;5049509;28;20113;-43
2022/12/07 07:32:27;;;;;;;2.72;1.50;;;17.50;51.20;;;;;;5048096;28;20429;-43
2022/12/07 07:34:54;;;;;;;1.00;0.65;;;17.60;51.20;;;;;;5051001;28;20177;-43
2022/12/07 07:37:21;;;;;;;1.00;0.60;;;17.70;51.30;;;;;;5050860;28;20053;-43
2022/12/07 07:39:47;;;;;;;0.88;0.57;;;17.80;51.30;;;;;;5051037;28;20071;-43
2022/12/07 07:42:14;;;;;;;1.10;0.70;;;17.80;51.20;;;;;;5050159;28;20045;-43
2022/12/07 07:44:41;;;;;;;0.93;0.60;;;17.90;51.20;;;;;;5049317;28;20548;-43
2022/12/07 07:47:09;;;;;;;1.23;0.80;;;18.00;51.20;;;;;;5051669;28;20098;-43
2022/12/07 07:49:36;;;;;;;2.00;0.80;;;18.10;51.20;;;;;;5050459;28;20110;-44
2022/12/07 07:52:03;;;;;;;1.30;0.73;;;18.20;51.10;;;;;;5052136;28;20056;-43
2022/12/07 07:54:30;;;;;;;1.58;0.68;;;18.30;51.10;;;;;;5051642;28;20131;-43
2022/12/07 07:56:56;;;;;;;1.17;0.70;;;18.30;51.00;;;;;;5051460;28;20055;-43
2022/12/07 07:59:24;;;;;;;2.15;0.80;;;18.40;51.50;;;;;;5051633;28;20055;-43
2022/12/07 08:01:51;;;;;;;1.42;0.80;;;18.60;50.90;;;;;;5051561;28;20124;-43
2022/12/07 08:04:19;;;;;;;1.55;0.70;;;18.70;50.80;;;;;;5050770;28;20422;-43
2022/12/07 08:06:45;;;;;;;1.75;0.63;;;18.80;50.80;;;;;;5052287;28;20069;-43
2022/12/07 08:09:13;;;;;;;1.20;0.70;;;18.90;50.60;;;;;;5050299;28;20049;-43
2022/12/07 08:11:39;;;;;;;1.50;0.63;;;19.00;50.60;;;;;;5049937;28;20045;-43
2022/12/07 08:14:06;;;;;;;2.00;0.90;;;19.10;50.50;;;;;;5052179;28;20044;-43
2022/12/07 08:16:33;;;;;;;2.20;0.88;;;19.20;50.30;;;;;;5050631;28;20051;-43
2022/12/07 08:18:59;;;;;;;0.63;0.52;;;19.30;50.20;;;;;;5050699;28;20045;-43
2022/12/07 08:21:27;;;;;;;1.10;0.80;;;19.40;50.10;;;;;;5050711;28;20045;-43
2022/12/07 08:23:54;;;;;;;2.85;0.93;;;19.50;50.00;;;;;;5048847;28;20064;-44
2022/12/07 08:26:21;;;;;;;1.55;0.70;;;19.50;49.90;;;;;;5051016;28;20498;-44
2022/12/07 08:28:48;;;;;;;1.17;0.80;;;19.60;49.80;;;;;;5050245;28;20139;-43
2022/12/07 08:31:16;;;;;;;1.73;0.85;;;19.70;49.70;;;;;;5050547;28;20045;-44
2022/12/07 08:33:42;;;;;;;1.00;0.60;;;19.70;49.50;;;;;;5050607;28;20045;-43
2022/12/07 08:36:10;;;;;;;1.10;0.60;;;19.80;49.40;;;;;;5050733;28;20044;-44
2022/12/07 08:38:39;;;;;;;1.10;0.65;;;19.80;49.30;;;;;;5050762;28;20060;-44
2022/12/07 08:41:06;;;;;;;1.63;0.73;;;19.90;49.20;;;;;;5052991;28;20048;-44
2022/12/07 08:43:33;;;;;;;1.67;0.80;;;20.00;49.20;;;;;;5055301;28;20377;-44
2022/12/07 08:46:05;;;;;;;1.38;0.68;;;20.00;49.10;;;;;;5055005;28;20045;-44
2022/12/07 08:48:31;;;;;;;0.90;0.60;;;20.00;49.00;;;;;;5054641;28;20053;-44
2022/12/07 08:50:58;;;;;;;1.70;0.60;;;20.10;48.90;;;;;;5055563;28;20045;-44
2022/12/07 08:53:25;;;;;;;1.35;0.68;;;20.10;48.80;;;;;;5054914;28;20055;-43
2022/12/07 08:55:53;;;;;;;2.13;0.82;;;20.20;48.80;;;;;;5055833;28;20478;-43
2022/12/07 08:58:20;;;;;;;1.52;0.80;;;20.20;48.70;;;;;;5055028;28;20055;-43
2022/12/07 09:00:46;;;;;;;1.33;0.70;;;20.30;48.70;;;;;;5054705;28;20059;-44
2022/12/07 09:03:13;;;;;;;1.13;0.75;;;20.30;48.60;;;;;;5052552;28;20049;-44
2022/12/07 09:05:40;;;;;;;1.35;0.77;;;20.40;48.60;;;;;;5053421;28;20095;-44
2022/12/07 09:08:07;;;;;;;1.40;0.80;;;20.40;48.50;;;;;;5053913;28;20045;-43
2022/12/07 09:10:33;;;;;;;1.48;0.75;;;20.40;48.40;;;;;;5053090;28;20083;-44
2022/12/07 09:13:01;;;;;;;1.13;0.75;;;20.50;48.30;;;;;;5053049;28;20041;-43
2022/12/07 09:15:28;;;;;;;1.63;0.68;;;20.50;48.30;;;;;;5051859;28;20401;-44
2022/12/07 09:17:55;;;;;;;1.30;0.82;;;20.50;48.20;;;;;;5053028;28;20403;-44
2022/12/07 09:20:21;;;;;;;1.88;0.90;;;20.60;48.80;;;;;;5053411;28;20041;-44
2022/12/07 09:22:48;;;;;;;1.70;1.00;;;20.60;48.10;;;;;;5053913;28;20067;-44
2022/12/07 09:25:15;;;;;;;1.83;0.80;;;20.60;48.00;;;;;;5052865;28;20132;-44
2022/12/07 09:27:42;;;;;;;1.35;0.73;;;20.70;47.90;;;;;;5053170;28;20505;-44
2022/12/07 09:30:10;;;;;;;2.03;0.90;;;20.70;47.90;;;;;;5053887;28;20067;-44
2022/12/07 09:32:37;;;;;;;1.25;0.70;;;20.70;47.80;;;;;;5053984;28;20045;-44
2022/12/07 09:35:04;;;;;;;1.65;0.75;;;20.70;47.70;;;;;;5054306;28;20052;-44
2022/12/07 09:37:34;;;;;;;1.83;1.00;;;20.80;47.70;;;;;;5053856;28;20059;-44
2022/12/07 09:40:01;;;;;;;1.17;0.70;;;20.80;47.60;;;;;;5053866;28;20064;-44
2022/12/07 09:42:29;;;;;;;3.10;1.50;;;20.80;47.60;;;;;;5053468;28;20041;-44
2022/12/07 09:44:56;;;;;;;3.63;2.42;;;20.80;47.50;;;;;;5054823;28;20497;-44
2022/12/07 09:47:24;;;;;;;3.92;2.78;;;20.90;47.50;;;;;;5053765;28;20063;-44
2022/12/07 09:49:51;;;;;;;8.20;5.03;;;20.90;47.50;;;;;;5054882;28;20421;-44
2022/12/07 09:52:19;;;;;;;15.88;5.07;;;20.90;47.50;;;;;;5053441;28;20049;-44
2022/12/07 09:54:48;;;;;;;8.73;4.13;;;20.90;47.40;;;;;;5053362;28;20055;-44
2022/12/07 09:57:14;;;;;;;7.70;4.07;;;20.90;47.40;;;;;;5053094;28;20052;-44
2022/12/07 09:59:41;;;;;;;5.75;3.80;;;21.00;47.40;;;;;;5053280;28;20690;-44
2022/12/07 10:02:34;;;;;;;6.15;3.65;;;21.00;47.40;;;;;;5053946;28;20124;-44
2022/12/07 10:05:01;;;;;;;7.80;4.20;;;21.00;47.40;;;;;;5052658;28;20049;-44
2022/12/07 10:07:28;;;;;;;6.18;3.70;;;21.00;47.40;;;;;;5053924;28;20401;-44
2022/12/07 10:09:55;;;;;;;5.68;3.15;;;21.00;47.30;;;;;;5054137;28;20053;-44
2022/12/07 10:12:21;;;;;;;6.88;3.78;;;21.00;47.20;;;;;;5052177;28;20395;-44
2022/12/07 10:14:55;;;;;;;6.20;3.28;;;21.00;47.20;;;;;;5052701;28;20055;-44
2022/12/07 10:17:30;;;;;;;5.20;3.40;;;21.10;47.10;;;;;;5053186;28;20139;-44
2022/12/07 10:20:09;;;;;;;6.00;3.42;;;21.10;47.20;;;;;;5053273;28;20059;-44
2022/12/07 10:22:36;;;;;;;5.25;3.30;;;21.10;47.20;;;;;;5053644;28;20041;-44
2022/12/07 10:25:09;;;;;;;6.18;3.45;;;21.00;47.10;;;;;;5054205;28;20517;-44
2022/12/07 10:27:36;;;;;;;6.53;3.20;;;21.00;47.00;;;;;;5053280;28;20052;-44
2022/12/07 10:30:03;;;;;;;6.32;3.10;;;21.00;46.90;;;;;;5054424;28;20523;-43
2022/12/07 10:32:33;;;;;;;6.93;3.38;;;21.00;46.90;;;;;;5052180;28;20051;-44
2022/12/07 10:35:20;;;;;;;7.22;3.88;;;21.00;46.90;;;;;;5051793;28;20429;-44
2022/12/07 10:37:46;;;;;;;7.28;3.38;;;21.00;47.10;;;;;;5051586;28;20048;-44
2022/12/07 10:40:26;;;;;;;6.88;3.50;;;21.00;46.90;;;;;;5050434;28;20051;-44
2022/12/07 10:43:02;;;;;;;6.68;3.92;;;21.00;47.00;;;;;;5051519;28;20051;-44
2022/12/07 10:45:28;;;;;;;6.68;3.85;;;21.00;47.10;;;;;;5050490;28;20045;-44
2022/12/07 10:48:00;;;;;;;6.82;3.58;;;21.00;47.10;;;;;;5051681;28;20478;-43
2022/12/07 10:50:50;;;;;;;6.13;3.67;;;21.00;47.20;;;;;;5051408;28;20055;-44
2022/12/07 10:53:33;;;;;;;6.10;3.38;;;21.00;47.30;;;;;;5049324;28;20486;-43
2022/12/07 10:56:30;;;;;;;7.75;3.35;;;20.90;47.10;;;;;;5051560;28;20074;-44
2022/12/07 10:59:04;;;;;;;7.20;3.40;;;20.90;47.20;;;;;;5052036;28;20538;-44
2022/12/07 11:01:33;;;;;;;5.23;3.30;;;20.90;47.20;;;;;;5052325;28;20059;-44
2022/12/07 11:04:19;;;;;;;5.50;2.95;;;20.80;47.20;;;;;;5051538;28;20045;-43
2022/12/07 11:06:48;;;;;;;6.78;3.35;;;20.80;47.30;;;;;;5052400;28;20135;-44
2022/12/07 11:09:37;;;;;;;6.88;3.70;;;20.80;47.30;;;;;;5052549;28;20056;-44
2022/12/07 11:12:06;;;;;;;6.00;2.92;;;20.80;47.30;;;;;;5051420;28;20048;-44
2022/12/07 11:14:35;;;;;;;5.20;3.17;;;20.70;47.20;;;;;;5051650;28;20041;-44
2022/12/07 11:17:05;;;;;;;4.93;2.83;;;20.70;47.30;;;;;;5051982;28;20497;-44
2022/12/07 11:19:52;;;;;;;7.43;3.08;;;21.90;48.20;;;;;;5052070;28;20053;-44
2022/12/07 11:22:21;;;;;;;5.90;2.95;;;20.70;47.60;;;;;;5052620;28;20047;-44
2022/12/07 11:24:50;;;;;;;4.10;2.78;;;20.60;47.60;;;;;;5053476;28;20145;-44
2022/12/07 11:27:24;;;;;;;5.22;2.85;;;20.50;47.50;;;;;;5052779;28;20071;-44
2022/12/07 11:29:56;;;;;;;6.15;2.85;;;20.50;47.60;;;;;;5053120;28;20048;-44
2022/12/07 11:32:27;;;;;;;5.38;2.67;;;20.50;47.90;;;;;;5051250;28;20049;-43
2022/12/07 11:35:01;;;;;;;3.50;2.40;;;20.50;48.10;;;;;;5050945;28;20049;-44
2022/12/07 11:37:31;;;;;;;5.65;2.47;;;20.50;48.00;;;;;;5051549;28;20044;-44
2022/12/07 11:40:00;;;;;;;4.80;2.33;;;20.40;48.00;;;;;;5050915;28;20132;-44
2022/12/07 11:42:28;;;;;;;5.20;2.58;;;20.40;48.10;;;;;;5050235;28;20048;-44
2022/12/07 11:44:58;;;;;;;4.30;2.47;;;20.40;48.10;;;;;;5050302;28;20059;-44
2022/12/07 11:47:29;;;;;;;3.60;1.90;;;20.40;48.20;;;;;;5050846;28;20057;-43
2022/12/07 11:49:58;;;;;;;6.80;2.63;;;20.30;48.10;;;;;;5050276;28;20053;-44
2022/12/07 11:52:28;;;;;;;3.97;2.20;;;20.30;48.40;;;;;;5046560;28;20060;-44
2022/12/07 11:54:54;;;;;;;13.45;2.30;;;20.30;48.70;;;;;;5046764;28;20063;-44
2022/12/07 11:57:25;;;;;;;2.55;1.70;;;20.20;48.60;;;;;;5044998;28;20067;-43
2022/12/07 11:59:53;;;;;;;8.32;1.98;;;20.20;48.40;;;;;;5047179;28;20390;-43
2022/12/07 12:02:23;;;;;;;3.88;1.85;;;20.20;49.00;;;;;;5048540;28;20045;-43
2022/12/07 12:04:52;;;;;;;3.58;1.90;;;20.20;48.40;;;;;;5048865;28;20111;-43
2022/12/07 12:07:22;;;;;;;4.55;1.67;;;20.20;48.30;;;;;;5050689;28;20049;-44
2022/12/07 12:09:50;;;;;;;3.30;1.58;;;20.20;48.30;;;;;;5051743;28;20120;-44
2022/12/07 12:12:32;;;;;;;5.43;1.63;;;20.20;48.30;;;;;;5051023;28;20060;-43
2022/12/07 12:15:06;;;;;;;5.53;1.75;;;20.10;48.30;;;;;;5052046;28;20400;-44
2022/12/07 12:17:43;;;;;;;2.40;1.48;;;20.10;48.30;;;;;;5053997;28;20057;-43
2022/12/07 12:20:18;;;;;;;4.90;1.42;;;20.10;48.30;;;;;;5054468;28;20073;-44
2022/12/07 12:22:47;;;;;;;2.55;1.40;;;20.10;48.10;;;;;;5053959;28;20051;-43
2022/12/07 12:25:28;;;;;;;3.20;1.60;;;20.10;48.10;;;;;;5053735;28;20059;-43
2022/12/07 12:27:56;;;;;;;3.47;1.40;;;20.10;48.10;;;;;;5054022;28;20059;-43
2022/12/07 12:30:34;;;;;;;2.45;1.30;;;20.00;48.10;;;;;;5054415;28;20048;-44
2022/12/07 12:33:05;;;;;;;2.60;1.40;;;20.00;47.90;;;;;;5053956;28;20389;-43
2022/12/07 12:35:33;;;;;;;3.50;1.33;;;20.00;47.80;;;;;;5053395;28;20057;-44
2022/12/07 12:38:30;;;;;;;3.40;1.50;;;19.90;47.90;;;;;;5055013;28;20075;-43
2022/12/07 12:40:56;;;;;;;4.72;1.30;;;19.90;48.20;;;;;;5054821;28;20136;-44
2022/12/07 12:43:50;;;;;;;2.53;1.40;;;19.80;48.40;;;;;;5054320;28;20051;-43
2022/12/07 12:46:51;;;;;;;3.55;1.48;;;19.90;48.70;;;;;;5054290;28;20045;-43
2022/12/07 12:49:35;;;;;;;3.08;1.50;;;19.80;48.80;;;;;;5054277;28;20823;-43
2022/12/07 12:52:06;;;;;;;2.42;1.10;;;19.80;48.70;;;;;;5055056;28;20041;-42
2022/12/07 12:54:36;;;;;;;2.10;1.30;;;19.80;48.80;;;;;;5053844;28;20048;-43
2022/12/07 12:57:06;;;;;;;2.33;1.30;;;19.80;48.70;;;;;;5053945;28;20501;-43
2022/12/07 12:59:33;;;;;;;3.25;1.10;;;19.80;48.70;;;;;;5055061;28;20071;-44
2022/12/07 13:02:18;;;;;;;3.13;1.40;;;19.80;48.70;;;;;;5055802;28;20390;-44